Time;durP1;ratioP1;P1;durP2;ratioP2;P2;SDS_P1;SDS_P2;PMS_P1;PMS_P2;Temp;Humidity;BMP_temperature;BMP_pressure;BME280_temperature;BME280_humidity;BME280_pressure;Samples;Min_cycle;Max_cycle;Signal;HPM_P1;HPM_P2
2023/01/10 00:04:04;;;;;;;6.80;2.50;;;8.60;99.90;;;;;;6270949;22;20428;-88
2023/01/10 00:06:59;;;;;;;5.57;2.33;;;8.60;99.90;;;;;;6246995;22;21035;-87
2023/01/10 00:13:53;;;;;;;3.03;2.10;;;8.50;99.90;;;;;;6273337;22;20494;-86
2023/01/10 00:17:25;;;;;;;;;;;;;;;;;;;;;
2023/01/10 00:38:58;;;;;;;5.60;2.60;;;8.50;99.90;;;;;;6276854;22;20498;-86
2023/01/10 00:45:26;;;;;;;7.47;2.03;;;8.50;99.90;;;;;;6275648;22;20453;-88
2023/01/10 00:48:33;;;;;;;5.00;2.53;;;8.50;99.90;;;;;;6245114;22;20403;-86
2023/01/10 00:51:05;;;;;;;2.37;1.50;;;8.50;99.90;;;;;;6254422;22;20434;-86
2023/01/10 00:53:37;;;;;;;2.50;1.63;;;8.50;99.90;;;;;;6273877;22;20430;-87
2023/01/10 00:56:07;;;;;;;3.97;1.73;;;8.50;99.90;;;;;;6248307;22;20435;-86
2023/01/10 00:58:36;;;;;;;4.20;1.30;;;8.40;99.90;;;;;;6274527;22;20439;-88
2023/01/10 01:01:07;;;;;;;5.87;1.80;;;8.40;99.90;;;;;;6275854;22;20464;-88
2023/01/10 01:03:55;;;;;;;2.87;1.50;;;8.50;99.90;;;;;;6278774;22;20582;-88
2023/01/10 01:06:22;;;;;;;3.87;2.40;;;8.40;99.90;;;;;;6252036;22;20457;-87
2023/01/10 01:08:49;;;;;;;3.17;1.30;;;8.50;99.90;;;;;;6288138;22;20422;-89
2023/01/10 01:11:24;;;;;;;5.47;1.80;;;8.50;99.90;;;;;;6251093;22;20467;-88
2023/01/10 01:13:53;;;;;;;5.40;2.53;;;8.40;99.90;;;;;;6221208;22;20433;-86
2023/01/10 01:16:26;;;;;;;9.00;1.67;;;8.50;99.90;;;;;;6262001;22;20455;-90
2023/01/10 01:19:00;;;;;;;3.90;1.60;;;8.50;99.90;;;;;;6249078;23;20450;-88
2023/01/10 01:21:36;;;;;;;7.03;2.13;;;8.50;99.90;;;;;;6248572;23;20399;-87
2023/01/10 01:24:08;;;;;;;6.83;2.47;;;8.50;99.90;;;;;;6249455;23;20412;-86
2023/01/10 01:26:36;;;;;;;6.43;2.70;;;8.50;99.90;;;;;;6223510;23;20466;-89
2023/01/10 01:29:11;;;;;;;4.77;2.10;;;8.50;99.90;;;;;;6243724;22;20422;-88
2023/01/10 01:31:38;;;;;;;5.00;1.70;;;8.50;99.90;;;;;;6237311;22;20943;-85
2023/01/10 01:34:05;;;;;;;4.10;2.13;;;8.50;99.90;;;;;;6237710;23;20765;-87
2023/01/10 01:36:32;;;;;;;5.57;2.43;;;8.50;99.90;;;;;;6238061;22;20427;-87
2023/01/10 01:38:59;;;;;;;5.40;2.60;;;8.50;99.90;;;;;;6247815;22;20523;-87
2023/01/10 01:44:19;;;;;;;5.60;2.50;;;8.50;99.90;;;;;;6239557;23;20443;-86
2023/01/10 01:47:03;;;;;;;11.70;2.43;;;8.50;99.90;;;;;;6237329;22;20439;-87
2023/01/10 01:49:32;;;;;;;4.20;1.77;;;8.50;99.90;;;;;;6237864;22;20420;-85
2023/01/10 01:52:04;;;;;;;7.23;2.67;;;8.50;99.90;;;;;;6239792;22;20411;-86
2023/01/10 01:54:33;;;;;;;6.20;2.37;;;8.40;99.90;;;;;;6238947;23;20440;-85
2023/01/10 01:57:09;;;;;;;4.23;1.90;;;8.40;99.90;;;;;;6237091;22;20436;-89
2023/01/10 01:59:43;;;;;;;7.60;2.00;;;8.40;99.90;;;;;;6239049;23;20451;-87
2023/01/10 02:02:40;;;;;;;4.47;2.23;;;8.40;99.90;;;;;;6238785;22;20431;-88
2023/01/10 02:05:27;;;;;;;5.17;2.33;;;8.40;99.90;;;;;;6253128;22;20424;-88
2023/01/10 02:07:57;;;;;;;7.30;2.03;;;8.40;99.90;;;;;;6257307;22;20404;-89
2023/01/10 02:10:52;;;;;;;10.33;2.17;;;8.50;99.90;;;;;;6263254;22;20400;-89
2023/01/10 02:13:25;;;;;;;3.10;1.53;;;8.50;99.90;;;;;;6239172;22;20415;-88
2023/01/10 02:15:52;;;;;;;7.17;1.90;;;8.50;99.90;;;;;;6238373;22;20409;-88
2023/01/10 02:18:21;;;;;;;6.37;1.90;;;8.50;99.90;;;;;;6239066;23;20408;-90
2023/01/10 02:21:03;;;;;;;6.00;2.40;;;8.50;99.90;;;;;;6238310;22;20432;-86
2023/01/10 02:24:18;;;;;;;4.87;2.07;;;8.50;99.90;;;;;;6243868;23;20463;-87
2023/01/10 02:27:11;;;;;;;7.60;2.50;;;8.50;99.90;;;;;;6225917;23;20423;-85
2023/01/10 02:29:56;;;;;;;7.07;2.20;;;8.50;99.90;;;;;;6260686;23;20435;-88
2023/01/10 02:32:42;;;;;;;6.70;2.17;;;8.40;99.90;;;;;;6255211;23;20729;-87
2023/01/10 02:35:33;;;;;;;3.93;1.93;;;8.40;99.90;;;;;;6220905;23;21190;-88
2023/01/10 02:38:16;;;;;;;4.80;2.20;;;8.40;99.90;;;;;;6216602;23;20427;-87
2023/01/10 02:41:41;;;;;;;5.07;2.47;;;8.40;99.90;;;;;;6216193;23;20440;-86
2023/01/10 02:44:17;;;;;;;7.13;1.87;;;8.40;99.90;;;;;;6126311;23;20426;-87
2023/01/10 02:46:47;;;;;;;7.70;1.97;;;8.40;99.90;;;;;;6149505;23;20533;-85
2023/01/10 02:49:18;;;;;;;5.50;2.13;;;8.30;99.90;;;;;;6198991;23;20450;-85
2023/01/10 02:51:45;;;;;;;5.53;2.13;;;8.30;99.90;;;;;;6213435;23;20503;-87
2023/01/10 02:54:18;;;;;;;6.77;2.43;;;8.40;99.90;;;;;;6240132;23;20416;-86
2023/01/10 02:56:58;;;;;;;7.50;2.10;;;8.40;99.90;;;;;;6242664;23;20434;-88
2023/01/10 02:59:43;;;;;;;6.40;1.90;;;8.50;99.90;;;;;;6212528;23;20444;-87
2023/01/10 03:02:32;;;;;;;4.13;2.07;;;8.40;99.90;;;;;;6214202;23;20466;-86
2023/01/10 03:05:18;;;;;;;2.77;1.70;;;8.50;99.90;;;;;;6212312;23;20474;-88
2023/01/10 03:08:27;;;;;;;5.10;1.93;;;8.50;99.90;;;;;;6215276;23;20408;-87
2023/01/10 03:11:01;;;;;;;9.97;2.93;;;8.40;99.90;;;;;;6213155;23;20415;-88
2023/01/10 03:13:51;;;;;;;5.17;1.70;;;8.40;99.90;;;;;;6244851;22;20426;-86
2023/01/10 03:16:26;;;;;;;5.83;2.20;;;8.40;99.90;;;;;;6243344;22;20994;-88
2023/01/10 03:18:59;;;;;;;7.30;2.37;;;8.40;99.90;;;;;;6246635;23;20506;-89
2023/01/10 03:21:32;;;;;;;8.43;2.27;;;8.40;99.90;;;;;;6244886;23;20408;-87
2023/01/10 03:24:06;;;;;;;11.57;2.43;;;8.40;99.90;;;;;;6241376;22;20888;-87
2023/01/10 03:26:51;;;;;;;3.57;1.90;;;8.40;99.90;;;;;;6241680;22;20545;-88
2023/01/10 03:29:28;;;;;;;5.47;1.70;;;8.30;99.90;;;;;;6243076;22;20439;-86
2023/01/10 03:32:00;;;;;;;6.63;2.00;;;8.30;99.90;;;;;;6253275;23;20436;-89
2023/01/10 03:34:35;;;;;;;6.20;2.00;;;8.30;99.90;;;;;;6258873;23;20408;-88
2023/01/10 03:37:15;;;;;;;8.50;2.97;;;8.30;99.90;;;;;;6247017;22;20494;-89
2023/01/10 03:40:22;;;;;;;6.40;2.10;;;8.40;99.90;;;;;;6244523;23;20452;-86
2023/01/10 03:46:09;;;;;;;4.50;2.20;;;8.90;99.90;;;;;;6257165;22;20432;-88
2023/01/10 03:48:41;;;;;;;8.20;1.70;;;9.00;99.50;;;;;;6241643;22;20414;-87
2023/01/10 03:51:11;;;;;;;8.87;2.50;;;8.90;99.50;;;;;;6239446;22;20403;-86
2023/01/10 03:53:38;;;;;;;6.20;1.63;;;8.80;99.90;;;;;;6237803;22;20464;-85
2023/01/10 03:56:13;;;;;;;10.10;2.30;;;8.50;99.90;;;;;;6236741;22;20436;-87
2023/01/10 03:58:43;;;;;;;4.87;1.90;;;8.70;99.90;;;;;;6238365;22;20395;-85
2023/01/10 04:01:11;;;;;;;7.67;2.30;;;8.50;99.90;;;;;;6252126;23;20420;-85
2023/01/10 04:03:38;;;;;;;6.60;2.17;;;8.50;99.90;;;;;;6252811;23;20408;-85
2023/01/10 04:06:05;;;;;;;5.13;1.80;;;8.50;99.90;;;;;;6243769;22;20443;-86
2023/01/10 04:08:34;;;;;;;5.90;2.30;;;8.40;99.90;;;;;;6239711;23;20411;-86
2023/01/10 04:11:01;;;;;;;5.70;2.87;;;8.30;99.90;;;;;;6248181;22;20416;-89
2023/01/10 04:13:28;;;;;;;5.93;2.20;;;8.30;99.90;;;;;;6218942;22;20477;-86
2023/01/10 04:15:58;;;;;;;6.03;2.33;;;8.20;99.90;;;;;;6271547;22;20446;-85
2023/01/10 04:18:26;;;;;;;9.80;2.60;;;8.30;99.90;;;;;;6272374;22;20411;-86
2023/01/10 04:20:55;;;;;;;5.70;2.40;;;8.20;99.90;;;;;;6273035;22;20442;-87
2023/01/10 04:23:22;;;;;;;9.27;2.33;;;8.50;99.90;;;;;;6246476;22;20427;-88
2023/01/10 04:25:49;;;;;;;9.23;3.00;;;8.50;99.90;;;;;;6273293;22;20514;-89
2023/01/10 04:28:17;;;;;;;5.53;2.13;;;8.40;99.90;;;;;;6245865;22;20435;-86
2023/01/10 04:30:45;;;;;;;7.07;2.57;;;8.30;99.90;;;;;;6247536;22;20498;-87
2023/01/10 04:33:17;;;;;;;8.97;2.77;;;8.40;99.90;;;;;;6273096;22;20421;-86
2023/01/10 04:35:48;;;;;;;9.00;3.10;;;8.30;99.90;;;;;;6273200;22;20466;-88
2023/01/10 04:38:18;;;;;;;8.53;2.60;;;8.30;99.90;;;;;;6273686;22;20418;-86
2023/01/10 04:41:00;;;;;;;5.23;2.43;;;8.20;99.90;;;;;;6247312;22;20438;-87
2023/01/10 04:43:34;;;;;;;4.57;2.83;;;8.10;99.90;;;;;;6246423;22;20403;-88
2023/01/10 04:46:02;;;;;;;5.70;2.53;;;8.10;99.90;;;;;;6246892;22;20430;-86
2023/01/10 04:48:29;;;;;;;14.80;3.10;;;8.10;99.90;;;;;;6245199;22;20442;-88
2023/01/10 04:50:57;;;;;;;12.20;3.77;;;8.20;99.90;;;;;;6245807;22;20883;-86
2023/01/10 04:53:24;;;;;;;7.03;2.40;;;8.40;99.90;;;;;;6270925;22;20426;-87
2023/01/10 04:55:54;;;;;;;8.87;2.93;;;8.50;99.90;;;;;;6247302;22;20466;-86
2023/01/10 04:58:21;;;;;;;8.40;2.47;;;8.60;99.90;;;;;;6244532;22;20418;-86
2023/01/10 05:00:51;;;;;;;5.70;2.10;;;8.40;99.90;;;;;;6273713;22;20439;-88
2023/01/10 05:03:20;;;;;;;5.67;2.03;;;8.20;99.90;;;;;;6246219;22;20408;-87
2023/01/10 05:05:47;;;;;;;7.77;2.23;;;8.30;99.90;;;;;;6245908;22;20462;-87
2023/01/10 05:08:14;;;;;;;9.27;3.00;;;8.20;99.90;;;;;;6245964;22;20907;-86
2023/01/10 05:10:44;;;;;;;7.87;2.40;;;8.20;99.90;;;;;;6251751;22;20415;-88
2023/01/10 05:13:11;;;;;;;6.43;1.80;;;8.50;99.90;;;;;;6289775;22;20399;-89
2023/01/10 05:15:38;;;;;;;5.40;2.27;;;8.60;99.90;;;;;;6266138;22;20462;-89
2023/01/10 05:18:07;;;;;;;11.27;2.47;;;8.60;99.90;;;;;;6291650;22;20406;-88
2023/01/10 05:20:34;;;;;;;12.47;2.43;;;8.50;99.90;;;;;;6290336;22;20933;-89
2023/01/10 05:23:01;;;;;;;7.23;2.20;;;8.30;99.90;;;;;;6277059;22;20438;-85
2023/01/10 05:25:28;;;;;;;8.40;2.50;;;8.50;99.90;;;;;;6272471;22;20441;-86
2023/01/10 05:27:57;;;;;;;10.67;3.03;;;8.40;99.90;;;;;;6245856;22;20891;-86
2023/01/10 05:30:24;;;;;;;8.63;2.20;;;8.40;99.90;;;;;;6245214;22;20501;-86
2023/01/10 05:32:51;;;;;;;7.80;2.70;;;8.50;99.90;;;;;;6246378;22;20406;-86
2023/01/10 05:35:21;;;;;;;6.77;2.60;;;8.60;99.90;;;;;;6273429;22;20414;-87
2023/01/10 05:37:52;;;;;;;7.47;2.33;;;8.50;99.90;;;;;;6244486;22;20439;-86
2023/01/10 05:40:24;;;;;;;11.00;2.83;;;8.30;99.90;;;;;;6246405;22;20435;-85
2023/01/10 05:42:58;;;;;;;4.40;2.80;;;8.20;99.90;;;;;;6274291;22;20403;-89
2023/01/10 05:45:26;;;;;;;9.23;2.70;;;8.40;99.90;;;;;;6249124;22;20525;-84
2023/01/10 05:47:56;;;;;;;9.93;2.90;;;8.20;99.90;;;;;;6250424;22;20445;-87
2023/01/10 05:50:23;;;;;;;9.67;2.43;;;8.40;99.90;;;;;;6249133;22;20505;-87
2023/01/10 05:52:50;;;;;;;5.60;2.80;;;8.20;99.90;;;;;;6272795;22;20414;-87
2023/01/10 05:55:20;;;;;;;9.20;2.80;;;8.20;99.90;;;;;;6290570;22;20419;-88
2023/01/10 05:57:50;;;;;;;8.87;3.03;;;8.50;99.90;;;;;;6258316;22;20411;-89
2023/01/10 06:00:17;;;;;;;10.43;2.73;;;8.40;99.90;;;;;;6248382;22;20442;-86
2023/01/10 06:02:45;;;;;;;9.30;2.50;;;8.30;99.90;;;;;;6247963;22;20446;-87
2023/01/10 06:05:13;;;;;;;7.47;2.53;;;8.30;99.90;;;;;;6273862;22;20422;-87
2023/01/10 06:07:44;;;;;;;7.00;2.77;;;8.20;99.90;;;;;;6247188;22;20442;-87
2023/01/10 06:10:12;;;;;;;11.90;3.27;;;8.10;99.90;;;;;;6287160;22;20424;-88
2023/01/10 06:12:41;;;;;;;9.10;2.57;;;8.00;99.90;;;;;;6268383;22;20411;-90
2023/01/10 06:15:13;;;;;;;15.83;3.13;;;8.10;99.90;;;;;;6266486;22;20399;-87
2023/01/10 06:17:44;;;;;;;11.00;3.43;;;8.10;99.90;;;;;;6245546;22;20395;-86
2023/01/10 06:20:17;;;;;;;13.70;3.00;;;8.10;99.90;;;;;;6244992;22;20443;-87
2023/01/10 06:22:47;;;;;;;9.50;2.90;;;8.20;99.90;;;;;;6261410;22;20391;-90
2023/01/10 06:25:19;;;;;;;7.20;3.07;;;8.20;99.90;;;;;;6288168;22;20500;-89
2023/01/10 06:27:50;;;;;;;14.07;3.50;;;8.00;99.90;;;;;;6289550;22;20403;-86
2023/01/10 06:30:25;;;;;;;8.17;3.40;;;8.20;99.90;;;;;;6261522;22;20481;-88
2023/01/10 06:33:03;;;;;;;14.67;3.30;;;8.60;99.90;;;;;;6251039;22;20417;-87
2023/01/10 06:35:34;;;;;;;6.73;2.63;;;8.70;99.70;;;;;;6242405;22;20446;-87
2023/01/10 06:38:07;;;;;;;9.17;3.20;;;8.60;99.70;;;;;;6244248;22;20482;-87
2023/01/10 06:40:34;;;;;;;11.87;4.10;;;8.50;99.80;;;;;;6272389;22;20498;-86
2023/01/10 06:43:01;;;;;;;14.10;3.43;;;8.20;99.90;;;;;;6258258;22;20403;-90
2023/01/10 06:45:31;;;;;;;12.67;4.27;;;8.20;99.90;;;;;;6260309;22;20498;-88
2023/01/10 06:47:58;;;;;;;10.70;4.00;;;8.50;99.90;;;;;;6260486;22;20411;-88
2023/01/10 06:50:31;;;;;;;5.33;2.40;;;8.30;99.90;;;;;;6262552;22;20411;-89
2023/01/10 06:53:03;;;;;;;12.83;3.37;;;8.50;99.90;;;;;;6288307;22;20407;-87
2023/01/10 06:55:32;;;;;;;8.60;3.03;;;8.50;99.80;;;;;;6289241;22;20500;-92
2023/01/10 06:58:22;;;;;;;13.47;3.60;;;8.40;99.80;;;;;;6289474;22;20433;-89
2023/01/10 07:01:15;;;;;;;14.03;3.27;;;8.40;99.80;;;;;;6290290;22;20451;-90
2023/01/10 07:03:45;;;;;;;9.07;3.50;;;8.30;99.80;;;;;;6263770;22;20791;-89
2023/01/10 07:06:18;;;;;;;10.37;3.63;;;8.20;99.90;;;;;;6256786;22;20439;-89
2023/01/10 07:08:48;;;;;;;11.40;3.37;;;8.30;99.90;;;;;;6248928;22;20453;-88
2023/01/10 07:11:17;;;;;;;8.47;3.53;;;8.30;99.90;;;;;;6250412;22;20423;-89
2023/01/10 07:13:44;;;;;;;8.87;3.70;;;8.30;99.90;;;;;;6248916;22;21044;-88
2023/01/10 07:16:17;;;;;;;8.10;3.53;;;8.30;99.90;;;;;;6249784;22;20439;-85
2023/01/10 07:18:44;;;;;;;10.80;4.53;;;8.30;99.90;;;;;;6245304;22;20400;-89
2023/01/10 07:21:12;;;;;;;11.30;3.50;;;8.20;99.90;;;;;;6277016;22;20510;-90
2023/01/10 07:23:42;;;;;;;10.73;6.07;;;8.20;99.90;;;;;;6273417;22;20411;-89
2023/01/10 07:26:11;;;;;;;10.83;3.50;;;8.00;99.90;;;;;;6248069;22;20510;-89
2023/01/10 07:28:38;;;;;;;9.23;3.83;;;8.20;99.90;;;;;;6249179;22;20441;-88
2023/01/10 07:31:08;;;;;;;8.37;3.90;;;8.30;99.90;;;;;;6246095;22;20419;-89
2023/01/10 07:33:36;;;;;;;7.30;3.03;;;8.10;99.90;;;;;;6271104;22;20439;-88
2023/01/10 07:36:03;;;;;;;12.60;3.50;;;8.30;99.90;;;;;;6242560;22;20500;-90
2023/01/10 07:38:31;;;;;;;10.30;3.53;;;8.30;99.90;;;;;;6243497;22;21077;-89
2023/01/10 07:41:02;;;;;;;17.37;4.40;;;8.40;99.90;;;;;;6271003;22;21283;-89
2023/01/10 07:43:32;;;;;;;13.87;4.27;;;8.40;99.90;;;;;;6244937;22;20403;-88
2023/01/10 07:46:01;;;;;;;9.57;3.70;;;8.40;99.90;;;;;;6246873;22;20851;-88
2023/01/10 07:48:29;;;;;;;14.00;5.40;;;8.40;99.90;;;;;;6248570;22;20400;-89
2023/01/10 07:51:01;;;;;;;8.23;3.40;;;8.50;99.90;;;;;;6284195;22;21068;-89
2023/01/10 07:53:34;;;;;;;12.10;4.27;;;8.40;99.90;;;;;;6261877;22;20403;-87
2023/01/10 07:56:08;;;;;;;11.70;3.30;;;8.40;99.90;;;;;;6285691;22;20522;-89
2023/01/10 07:58:40;;;;;;;13.87;3.70;;;8.40;99.90;;;;;;6258591;22;20526;-91
2023/01/10 08:04:03;;;;;;;7.90;3.60;;;8.50;99.90;;;;;;6272080;22;21124;-87
2023/01/10 08:06:31;;;;;;;15.10;3.43;;;8.50;99.90;;;;;;6245846;22;20489;-89
2023/01/10 08:09:10;;;;;;;6.57;3.70;;;8.40;99.90;;;;;;6250325;22;20407;-88
2023/01/10 08:11:41;;;;;;;9.03;3.30;;;8.50;99.90;;;;;;6247499;22;20431;-88
2023/01/10 08:14:11;;;;;;;8.10;3.30;;;8.40;99.80;;;;;;6248465;22;20422;-87
2023/01/10 08:16:38;;;;;;;11.63;4.67;;;8.30;99.90;;;;;;6238420;22;20441;-88
2023/01/10 08:19:07;;;;;;;7.93;3.33;;;8.30;99.90;;;;;;6255671;22;20407;-87
2023/01/10 08:21:34;;;;;;;15.33;3.93;;;8.40;99.90;;;;;;6260960;22;20465;-89
2023/01/10 08:24:05;;;;;;;11.23;4.20;;;8.40;99.90;;;;;;6263891;22;20670;-89
2023/01/10 08:26:33;;;;;;;8.17;3.10;;;8.50;99.90;;;;;;6288157;22;20511;-87
2023/01/10 08:29:02;;;;;;;16.90;4.17;;;8.50;99.90;;;;;;6284426;22;20530;-86
2023/01/10 08:31:29;;;;;;;9.17;3.83;;;8.50;99.80;;;;;;6251609;22;21358;-86
2023/01/10 08:34:00;;;;;;;12.40;3.93;;;8.40;99.90;;;;;;6273406;22;20919;-85
2023/01/10 08:36:28;;;;;;;11.87;4.00;;;8.50;99.90;;;;;;6251239;22;20435;-87
2023/01/10 08:38:58;;;;;;;18.90;3.63;;;8.40;99.90;;;;;;6256763;22;20411;-90
2023/01/10 08:41:25;;;;;;;14.27;5.27;;;8.50;99.90;;;;;;6269580;22;20439;-90
2023/01/10 08:43:52;;;;;;;17.63;4.27;;;8.40;99.90;;;;;;6269198;22;20416;-90
2023/01/10 08:46:21;;;;;;;11.93;4.80;;;8.50;99.90;;;;;;6296105;22;20451;-90
2023/01/10 08:48:52;;;;;;;13.33;5.17;;;8.60;99.80;;;;;;6295819;22;20383;-89
2023/01/10 08:51:20;;;;;;;8.07;3.80;;;8.70;99.70;;;;;;6261810;22;20417;-86
2023/01/10 08:53:49;;;;;;;11.30;5.17;;;8.70;99.60;;;;;;6247643;22;20403;-87
2023/01/10 08:56:39;;;;;;;10.70;3.60;;;8.80;99.40;;;;;;6252947;22;20454;-87
2023/01/10 08:59:11;;;;;;;11.97;4.40;;;8.70;99.40;;;;;;6279911;22;20404;-87
2023/01/10 09:01:47;;;;;;;12.00;4.50;;;8.80;99.30;;;;;;6274243;22;20484;-86
2023/01/10 09:04:22;;;;;;;8.47;3.90;;;8.80;99.20;;;;;;6275942;22;20477;-87
2023/01/10 09:06:49;;;;;;;9.63;3.57;;;8.60;99.40;;;;;;6249202;22;20431;-86
2023/01/10 09:09:17;;;;;;;19.23;7.13;;;8.50;99.80;;;;;;6276776;22;20422;-89
2023/01/10 09:11:44;;;;;;;9.13;4.60;;;8.70;99.70;;;;;;6249669;22;20450;-88
2023/01/10 09:14:14;;;;;;;18.83;5.03;;;8.60;99.80;;;;;;6276977;22;21004;-85
2023/01/10 09:16:41;;;;;;;11.47;4.00;;;8.90;99.40;;;;;;6275310;22;20494;-89
2023/01/10 09:19:23;;;;;;;14.33;4.17;;;8.80;99.10;;;;;;6254403;22;20407;-87
2023/01/10 09:21:55;;;;;;;16.87;4.00;;;8.60;99.40;;;;;;6279146;22;20439;-88
2023/01/10 09:24:25;;;;;;;20.13;4.23;;;8.90;99.40;;;;;;6281033;22;20418;-88
2023/01/10 09:27:06;;;;;;;9.50;4.07;;;9.10;98.90;;;;;;6280856;22;20438;-88
2023/01/10 09:29:36;;;;;;;10.07;3.90;;;9.10;98.80;;;;;;6251829;22;20469;-88
2023/01/10 09:32:09;;;;;;;11.30;5.17;;;9.10;98.60;;;;;;6275237;22;20443;-88
2023/01/10 09:34:36;;;;;;;14.87;4.67;;;9.10;98.20;;;;;;6252094;22;20443;-88
2023/01/10 09:37:03;;;;;;;7.00;3.80;;;8.90;98.40;;;;;;6250313;22;20438;-89
2023/01/10 09:39:33;;;;;;;7.30;2.73;;;8.90;98.90;;;;;;6253041;22;20411;-87
2023/01/10 09:42:34;;;;;;;11.07;3.70;;;9.20;98.50;;;;;;6250659;22;20506;-88
2023/01/10 09:45:37;;;;;;;13.23;4.57;;;9.80;97.70;;;;;;6276092;22;20411;-86
2023/01/10 09:48:22;;;;;;;13.50;3.10;;;10.50;95.50;;;;;;6276752;22;20402;-87
2023/01/10 09:55:13;;;;;;;8.10;3.40;;;11.80;92.00;;;;;;6234261;22;20418;-86
2023/01/10 09:58:55;;;;;;;8.00;2.90;;;12.50;91.10;;;;;;6085599;23;20922;-86
2023/01/10 10:01:58;;;;;;;8.47;2.57;;;12.40;90.30;;;;;;6005412;23;20453;-86
2023/01/10 10:05:08;;;;;;;;;;;;;;;;;;;;;
2023/01/10 10:08:16;;;;;;;;;;;;;;;;;;;;;
2023/01/10 10:11:44;;;;;;;8.97;2.53;;;11.60;91.60;;;;;;6122623;23;20464;-88
2023/01/10 10:14:43;;;;;;;9.47;2.50;;;11.30;91.90;;;;;;6122554;23;20412;-88
2023/01/10 10:18:03;;;;;;;8.97;2.40;;;10.90;92.60;;;;;;6100389;23;21092;-85
2023/01/10 10:21:10;;;;;;;9.83;2.77;;;10.70;93.20;;;;;;6119906;23;21249;-86
2023/01/10 10:28:41;;;;;;;11.10;2.00;;;10.60;93.90;;;;;;6102037;23;20420;-86
2023/01/10 10:31:57;;;;;;;5.80;1.90;;;10.30;93.90;;;;;;6114891;23;20407;-86
2023/01/10 10:34:41;;;;;;;9.80;2.20;;;10.30;94.10;;;;;;6132440;22;20418;-87
2023/01/10 10:37:32;;;;;;;12.13;3.50;;;10.30;94.30;;;;;;6249834;22;20435;-85
2023/01/10 10:40:03;;;;;;;8.20;2.53;;;10.40;94.20;;;;;;6268140;22;20403;-88
2023/01/10 10:42:42;;;;;;;11.33;2.57;;;10.40;94.30;;;;;;6283379;22;20447;-88
2023/01/10 10:45:27;;;;;;;8.90;2.53;;;10.50;94.20;;;;;;6245509;22;20414;-88
2023/01/10 10:48:21;;;;;;;9.50;2.83;;;10.60;94.00;;;;;;6244712;22;20438;-89
2023/01/10 10:50:54;;;;;;;7.27;2.60;;;10.50;93.70;;;;;;6244637;22;20411;-86
2023/01/10 10:53:25;;;;;;;9.17;2.40;;;10.10;94.10;;;;;;6244191;22;20411;-89
2023/01/10 10:55:52;;;;;;;7.93;2.77;;;10.40;94.60;;;;;;6270760;22;20431;-86
2023/01/10 10:58:24;;;;;;;6.87;2.60;;;10.70;93.90;;;;;;6248852;22;20421;-87
2023/01/10 11:00:53;;;;;;;10.93;3.00;;;10.70;93.60;;;;;;6252896;22;20423;-90
2023/01/10 11:04:00;;;;;;;9.93;3.17;;;10.80;93.50;;;;;;6291655;22;20407;-90
2023/01/10 11:06:30;;;;;;;17.03;2.70;;;10.70;93.20;;;;;;6255911;22;20427;-86
2023/01/10 11:09:03;;;;;;;14.77;2.40;;;10.70;93.30;;;;;;6249905;22;20419;-87
2023/01/10 11:12:09;;;;;;;15.07;3.03;;;10.90;93.20;;;;;;4998364;27;4200846;-87
2023/01/10 11:14:47;;;;;;;9.93;2.80;;;10.90;92.70;;;;;;5121723;28;20195;-87
2023/01/10 11:20:32;;;;;;;6.23;2.13;;;10.80;92.40;;;;;;5110343;28;20520;-89
2023/01/10 11:23:32;;;;;;;5.23;1.90;;;10.70;92.50;;;;;;5101014;28;20552;-88
2023/01/10 11:26:09;;;;;;;8.83;2.90;;;10.60;92.40;;;;;;5117935;28;20574;-88
2023/01/10 11:28:52;;;;;;;9.80;2.70;;;10.60;92.60;;;;;;5094717;28;20453;-89
2023/01/10 11:31:31;;;;;;;12.63;3.40;;;10.60;92.30;;;;;;5106077;28;20465;-87
2023/01/10 11:34:31;;;;;;;4.80;2.10;;;10.60;92.60;;;;;;5105150;28;20457;-87
2023/01/10 11:37:32;;;;;;;7.47;2.03;;;10.60;92.40;;;;;;5103011;28;20569;-87
2023/01/10 11:40:24;;;;;;;7.70;1.80;;;10.40;92.30;;;;;;5103769;28;20453;-88
2023/01/10 11:43:59;;;;;;;6.83;1.90;;;10.30;92.40;;;;;;5083720;28;20449;-86
2023/01/10 11:46:53;;;;;;;6.93;1.87;;;10.60;92.10;;;;;;5050859;28;20470;-89
2023/01/10 11:49:38;;;;;;;8.83;2.00;;;10.50;92.00;;;;;;5073125;28;20568;-89
2023/01/10 11:52:44;;;;;;;8.73;2.40;;;10.90;91.60;;;;;;5064750;28;21072;-85
2023/01/10 11:59:38;;;;;;;9.33;2.40;;;10.80;91.50;;;;;;4983342;28;20529;-86
2023/01/10 12:06:27;;;;;;;9.90;2.43;;;10.50;91.70;;;;;;5049958;22;20464;-86
2023/01/10 12:09:41;;;;;;;11.80;1.87;;;10.60;91.90;;;;;;5064490;28;20475;-84
2023/01/10 12:13:14;;;;;;;9.80;2.70;;;10.70;91.70;;;;;;5068938;28;20451;-88
2023/01/10 12:16:18;;;;;;;6.00;1.73;;;10.60;91.50;;;;;;5049803;28;20475;-88
2023/01/10 12:19:02;;;;;;;14.57;2.37;;;10.70;91.30;;;;;;5055735;28;20447;-86
2023/01/10 12:21:54;;;;;;;6.33;1.87;;;10.50;91.70;;;;;;5070051;28;20515;-86
2023/01/10 12:24:53;;;;;;;8.13;2.73;;;10.80;91.60;;;;;;5047305;28;20467;-86
2023/01/10 12:28:06;;;;;;;6.63;1.80;;;10.80;91.60;;;;;;5043369;28;20471;-84
2023/01/10 12:31:01;;;;;;;6.93;2.13;;;10.80;91.40;;;;;;5037893;28;20643;-86
2023/01/10 12:38:20;;;;;;;5.60;2.30;;;10.60;92.00;;;;;;5040772;28;20483;-86
2023/01/10 12:44:10;;;;;;;3.97;1.97;;;10.60;92.00;;;;;;5044785;28;20471;-86
2023/01/10 12:44:20;;;;;;;9.20;2.30;;;10.50;92.20;;;;;;5024606;28;20458;-86
2023/01/10 12:48:00;;;;;;;8.10;2.33;;;10.60;92.30;;;;;;5025167;28;20484;-87
2023/01/10 12:50:57;;;;;;;8.97;2.83;;;10.60;92.20;;;;;;5039847;28;20492;-86
2023/01/10 13:00:48;;;;;;;8.93;2.80;;;10.30;91.90;;;;;;5043461;28;20461;-84
2023/01/10 13:03:58;;;;;;;6.93;2.20;;;10.30;92.00;;;;;;5035467;28;20467;-87
2023/01/10 13:06:55;;;;;;;4.00;1.80;;;10.20;92.00;;;;;;5037059;28;20523;-86
2023/01/10 13:09:57;;;;;;;;;;;;;;;;;;;;;
2023/01/10 13:13:20;;;;;;;9.80;2.50;;;10.30;92.10;;;;;;5054141;28;20456;-87
2023/01/10 13:16:32;;;;;;;7.97;2.30;;;10.30;92.40;;;;;;5038306;28;20475;-83
2023/01/10 13:20:02;;;;;;;4.33;1.47;;;10.20;92.10;;;;;;5045929;28;22439;-83
2023/01/10 13:23:02;;;;;;;10.13;2.43;;;10.30;92.40;;;;;;5035592;28;20468;-85
2023/01/10 13:26:49;;;;;;;4.77;1.63;;;10.40;92.00;;;;;;5062805;22;20504;-85
2023/01/10 13:29:47;;;;;;;5.90;2.00;;;10.40;92.00;;;;;;5024925;28;20480;-86
2023/01/10 13:33:21;;;;;;;5.90;2.00;;;10.40;91.70;;;;;;5040428;28;20841;-86
2023/01/10 13:36:27;;;;;;;4.97;2.07;;;10.40;91.90;;;;;;5048473;28;20547;-86
2023/01/10 13:40:03;;;;;;;9.47;1.80;;;10.30;91.80;;;;;;5043694;28;20489;-87
2023/01/10 13:43:33;;;;;;;10.60;1.73;;;10.30;92.30;;;;;;5028170;28;20457;-89
2023/01/10 13:46:51;;;;;;;6.70;2.23;;;10.20;92.40;;;;;;5009693;28;20547;-86
2023/01/10 13:49:47;;;;;;;7.13;2.60;;;10.20;92.30;;;;;;5046555;28;20802;-86
2023/01/10 13:53:31;;;;;;;8.53;3.13;;;10.20;92.60;;;;;;5051306;28;20486;-89
2023/01/10 13:56:56;;;;;;;7.50;2.27;;;10.30;92.60;;;;;;4948611;28;20510;-85
2023/01/10 14:02:52;;;;;;;6.53;2.20;;;10.10;92.60;;;;;;5044949;28;20448;-86
2023/01/10 14:05:49;;;;;;;7.80;1.80;;;10.00;92.90;;;;;;5061064;28;21534;-87
2023/01/10 14:08:30;;;;;;;7.10;2.17;;;10.00;92.60;;;;;;5041918;28;20888;-87
2023/01/10 14:11:19;;;;;;;5.73;2.90;;;9.90;93.30;;;;;;5048047;28;20504;-86
2023/01/10 14:14:28;;;;;;;9.33;2.50;;;9.90;93.50;;;;;;5046173;28;20457;-88
2023/01/10 14:17:09;;;;;;;7.57;1.60;;;10.00;92.60;;;;;;5045808;28;20476;-87
2023/01/10 14:20:13;;;;;;;5.73;1.63;;;9.90;93.10;;;;;;5059422;28;20469;-87
2023/01/10 14:23:10;;;;;;;7.00;1.43;;;9.80;93.20;;;;;;5057367;28;20487;-86
2023/01/10 14:26:37;;;;;;;7.60;2.10;;;9.90;93.20;;;;;;5046957;28;20462;-85
2023/01/10 14:30:00;;;;;;;;;;;;;;;;;;;;;
2023/01/10 14:33:39;;;;;;;5.70;2.17;;;9.80;93.00;;;;;;5008486;28;20469;-85
2023/01/10 14:41:06;;;;;;;7.37;2.30;;;9.90;93.20;;;;;;4983431;28;20451;-87
2023/01/10 14:44:30;;;;;;;9.03;2.40;;;9.80;93.40;;;;;;4921597;28;20474;-88
2023/01/10 14:47:54;;;;;;;;;;;;;;;;;;;;;
2023/01/10 14:50:35;;;;;;;5.10;2.33;;;9.80;93.70;;;;;;4973726;28;20468;-86
2023/01/10 14:53:35;;;;;;;5.30;1.87;;;9.80;93.60;;;;;;4957449;28;20440;-86
2023/01/10 14:57:01;;;;;;;6.80;1.90;;;9.70;93.60;;;;;;4961406;28;20483;-85
2023/01/10 15:00:07;;;;;;;8.10;2.33;;;9.60;93.90;;;;;;4893237;29;20461;-85
2023/01/10 15:06:53;;;;;;;5.37;2.00;;;9.70;94.00;;;;;;4986449;28;20590;-85
2023/01/10 15:09:56;;;;;;;6.10;2.17;;;9.70;93.90;;;;;;5042571;28;20475;-88
2023/01/10 15:12:40;;;;;;;4.43;2.10;;;9.70;94.20;;;;;;5064758;28;21451;-87
2023/01/10 15:15:28;;;;;;;6.00;2.40;;;9.70;94.40;;;;;;5048340;28;20922;-84
2023/01/10 15:18:06;;;;;;;5.57;2.10;;;9.70;94.40;;;;;;5043651;28;20480;-87
2023/01/10 15:21:05;;;;;;;7.93;2.70;;;9.70;94.60;;;;;;5017933;28;20956;-85
2023/01/10 15:24:15;;;;;;;11.07;2.87;;;9.70;94.50;;;;;;5045267;28;20456;-87
2023/01/10 15:27:01;;;;;;;8.27;2.40;;;9.70;94.40;;;;;;5046207;28;20515;-90
2023/01/10 15:29:57;;;;;;;6.60;2.30;;;9.70;94.70;;;;;;5049372;28;20473;-85
2023/01/10 15:32:59;;;;;;;10.97;2.73;;;9.70;94.70;;;;;;5047336;28;20772;-86
2023/01/10 15:35:42;;;;;;;11.63;2.87;;;9.70;94.90;;;;;;5048347;28;21568;-84
2023/01/10 15:38:44;;;;;;;4.47;2.37;;;9.60;95.10;;;;;;5053043;28;20468;-88